Time;durP1;ratioP1;P1;durP2;ratioP2;P2;SDS_P1;SDS_P2;PMS_P1;PMS_P2;Temp;Humidity;BMP_temperature;BMP_pressure;BME280_temperature;BME280_humidity;BME280_pressure;Samples;Min_cycle;Max_cycle;Signal;HPM_P1;HPM_P2
2023/06/28 14:58:05;;;;;;;7.37;3.00;;;;;;;;;;5841659;22;8948011;-57
2023/06/28 15:01:00;;;;;;;6.85;2.80;;;;;;;;;;6215568;23;20395;-58
2023/06/28 15:03:47;;;;;;;3.78;2.70;;;;;;;;;;6215693;23;20338;-58
2023/06/28 15:06:40;;;;;;;4.82;2.45;;;;;;;;;;6213887;23;20067;-58
2023/06/28 15:09:28;;;;;;;6.18;2.70;;;;;;;;;;6216062;23;20021;-58
2023/06/28 15:12:21;;;;;;;4.38;2.58;;;;;;;;;;6215587;23;20023;-58
2023/06/28 15:15:09;;;;;;;5.97;2.33;;;;;;;;;;6215564;23;20039;-58
2023/06/28 15:18:03;;;;;;;3.95;2.30;;;;;;;;;;6214731;23;20027;-58
2023/06/28 15:20:50;;;;;;;8.70;2.40;;;;;;;;;;6216510;23;20044;-56
2023/06/28 15:23:43;;;;;;;9.70;2.70;;;;;;;;;;6216388;23;20083;-58
2023/06/28 15:26:31;;;;;;;4.68;2.78;;;;;;;;;;6212957;23;20433;-58
2023/06/28 15:29:26;;;;;;;4.43;2.30;;;;;;;;;;6214789;23;20032;-58
2023/06/28 15:32:18;;;;;;;6.90;2.70;;;;;;;;;;6215127;23;20021;-58
2023/06/28 15:34:52;;;;;;;5.53;2.40;;;;;;;;;;6214817;23;20028;-58
2023/06/28 15:37:27;;;;;;;5.20;2.88;;;;;;;;;;6208244;23;20025;-58
2023/06/28 15:39:54;;;;;;;;;;;;;;;;;;6208369;23;20020;-58
2023/06/28 15:42:48;;;;;;;7.43;2.60;;;;;;;;;;6208284;23;19938;-58
2023/06/28 15:45:36;;;;;;;4.10;2.60;;;;;;;;;;6209766;23;20024;-58
2023/06/28 15:48:28;;;;;;;6.28;2.33;;;;;;;;;;6209752;23;20020;-56
2023/06/28 15:51:16;;;;;;;4.60;2.60;;;;;;;;;;6208177;23;20028;-58
2023/06/28 15:54:10;;;;;;;4.28;2.80;;;;;;;;;;6209288;23;20029;-57
2023/06/28 15:57:05;;;;;;;4.53;2.90;;;;;;;;;;6207991;23;20047;-57
2023/06/28 16:00:05;;;;;;;3.75;2.72;;;;;;;;;;6206481;23;20024;-58
2023/06/28 16:02:53;;;;;;;4.32;2.70;;;;;;;;;;6207183;23;20340;-58
2023/06/28 16:05:47;;;;;;;6.30;2.80;;;;;;;;;;6209263;23;20031;-59
2023/06/28 16:08:34;;;;;;;4.90;2.60;;;;;;;;;;6209870;23;20071;-58
2023/06/28 16:11:30;;;;;;;5.13;2.47;;;;;;;;;;6207644;23;20023;-58
2023/06/28 16:14:15;;;;;;;5.15;2.63;;;;;;;;;;6207562;23;20718;-57
2023/06/28 16:17:08;;;;;;;7.75;2.70;;;;;;;;;;6207271;23;20021;-58
2023/06/28 16:19:56;;;;;;;7.93;2.80;;;;;;;;;;6206667;23;20074;-58
2023/06/28 16:22:52;;;;;;;4.15;2.50;;;;;;;;;;6206585;23;20032;-58
2023/06/28 16:25:36;;;;;;;5.63;3.15;;;;;;;;;;6207254;23;20094;-58
2023/06/28 16:28:31;;;;;;;5.20;3.35;;;;;;;;;;6207094;23;20027;-57
2023/06/28 16:31:18;;;;;;;6.22;3.05;;;;;;;;;;6207622;23;20075;-58
2023/06/28 16:34:12;;;;;;;6.07;3.20;;;;;;;;;;6209298;23;20079;-59
2023/06/28 16:36:59;;;;;;;11.70;3.22;;;;;;;;;;6208191;23;20021;-59
2023/06/28 16:39:53;;;;;;;4.90;2.67;;;;;;;;;;6207147;23;20024;-58
2023/06/28 16:42:40;;;;;;;5.05;2.67;;;;;;;;;;6206033;23;20074;-58
2023/06/28 16:45:34;;;;;;;4.78;2.75;;;;;;;;;;6206192;23;20078;-58
2023/06/28 16:48:21;;;;;;;5.93;3.05;;;;;;;;;;6207009;23;20024;-59
2023/06/28 16:51:15;;;;;;;4.80;3.00;;;;;;;;;;6205959;23;20024;-58
2023/06/28 16:54:02;;;;;;;7.15;2.95;;;;;;;;;;6208035;23;20545;-58
2023/06/28 16:57:10;;;;;;;5.35;3.03;;;;;;;;;;6208672;23;20074;-58
2023/06/28 16:59:56;;;;;;;8.65;3.30;;;;;;;;;;6208311;23;20016;-58
2023/06/28 17:02:50;;;;;;;11.18;3.88;;;;;;;;;;6207778;23;20079;-58
2023/06/28 17:05:43;;;;;;;9.10;3.20;;;;;;;;;;6201483;23;20366;-59
2023/06/28 17:08:32;;;;;;;8.68;3.33;;;;;;;;;;6205373;23;20520;-59
2023/06/28 17:11:20;;;;;;;7.88;3.17;;;;;;;;;;6208220;23;20024;-58
2023/06/28 17:14:13;;;;;;;9.75;3.22;;;;;;;;;;6209012;23;20021;-58
2023/06/28 17:17:00;;;;;;;9.40;3.47;;;;;;;;;;6208069;23;20033;-58
2023/06/28 17:19:54;;;;;;;7.13;3.38;;;;;;;;;;6207165;23;20025;-58
2023/06/28 17:22:41;;;;;;;11.27;3.30;;;;;;;;;;6208319;23;20068;-58
2023/06/28 17:25:35;;;;;;;10.80;3.42;;;;;;;;;;6209172;23;20027;-59
2023/06/28 17:28:24;;;;;;;8.77;3.50;;;;;;;;;;6207728;23;20082;-59
2023/06/28 17:31:16;;;;;;;12.23;3.83;;;;;;;;;;6206597;23;20401;-59
2023/06/28 17:34:03;;;;;;;9.43;3.25;;;;;;;;;;6201456;23;20027;-59
2023/06/28 17:36:57;;;;;;;7.38;3.00;;;;;;;;;;6206064;23;20544;-59
2023/06/28 17:39:44;;;;;;;11.45;3.63;;;;;;;;;;6205610;23;20032;-59
2023/06/28 17:42:38;;;;;;;8.88;3.53;;;;;;;;;;6204802;23;20405;-59
2023/06/28 17:45:26;;;;;;;9.27;3.15;;;;;;;;;;6205166;23;20029;-59
2023/06/28 17:48:19;;;;;;;9.38;3.60;;;;;;;;;;6203513;23;20079;-60
2023/06/28 17:51:13;;;;;;;7.95;3.13;;;;;;;;;;6204996;23;20075;-59
2023/06/28 17:54:00;;;;;;;12.30;3.65;;;;;;;;;;6204453;23;20029;-58
2023/06/28 17:57:06;;;;;;;13.45;3.33;;;;;;;;;;6196860;23;20615;-59
2023/06/28 17:59:40;;;;;;;9.48;3.40;;;;;;;;;;6203386;23;20028;-58
2023/06/28 18:02:14;;;;;;;10.02;3.00;;;;;;;;;;6203397;23;20512;-59
2023/06/28 18:04:49;;;;;;;8.98;3.38;;;;;;;;;;6202496;23;20548;-59
2023/06/28 18:07:16;;;;;;;11.05;3.35;;;;;;;;;;6204262;23;20463;-59
2023/06/28 18:09:43;;;;;;;6.72;3.20;;;;;;;;;;6204679;23;20112;-59
2023/06/28 18:12:17;;;;;;;7.43;3.17;;;;;;;;;;6203097;23;20087;-59
2023/06/28 18:15:04;;;;;;;8.43;3.05;;;;;;;;;;6202697;23;20020;-58
2023/06/28 18:17:58;;;;;;;8.25;2.83;;;;;;;;;;6204372;23;20024;-59
2023/06/28 18:20:45;;;;;;;9.23;3.22;;;;;;;;;;6203387;23;20024;-59
2023/06/28 18:23:39;;;;;;;8.02;2.35;;;;;;;;;;6204483;23;20020;-59
2023/06/28 18:26:26;;;;;;;12.02;3.15;;;;;;;;;;6201116;23;20532;-59
2023/06/28 18:29:20;;;;;;;6.88;3.03;;;;;;;;;;6203611;23;20047;-59
2023/06/28 18:32:07;;;;;;;8.80;3.10;;;;;;;;;;6204103;23;20106;-58
2023/06/28 18:35:01;;;;;;;7.40;2.88;;;;;;;;;;6201747;23;20024;-59
2023/06/28 18:37:48;;;;;;;6.93;3.20;;;;;;;;;;6204018;23;20529;-59
2023/06/28 18:40:42;;;;;;;4.63;2.55;;;;;;;;;;6204793;23;20024;-59
2023/06/28 18:43:29;;;;;;;7.88;2.92;;;;;;;;;;6203940;23;20028;-60
2023/06/28 18:46:23;;;;;;;6.47;3.25;;;;;;;;;;6204534;23;20533;-59
2023/06/28 18:49:10;;;;;;;8.75;2.70;;;;;;;;;;6203993;23;20028;-57
2023/06/28 18:52:05;;;;;;;10.55;3.10;;;;;;;;;;6195183;23;20528;-59
2023/06/28 18:54:57;;;;;;;9.63;3.03;;;;;;;;;;6203397;23;20030;-60
2023/06/28 18:58:04;;;;;;;12.18;3.00;;;;;;;;;;6203368;23;20082;-60
2023/06/28 19:00:51;;;;;;;9.88;3.25;;;;;;;;;;6203194;23;20402;-60
2023/06/28 19:03:46;;;;;;;8.90;2.92;;;;;;;;;;6202742;23;20021;-60
2023/06/28 19:06:33;;;;;;;7.85;3.10;;;;;;;;;;6202868;23;20027;-60
2023/06/28 19:09:28;;;;;;;9.05;3.25;;;;;;;;;;6202759;23;20477;-60
2023/06/28 19:12:15;;;;;;;9.35;3.13;;;;;;;;;;6203210;23;20421;-60
2023/06/28 19:15:09;;;;;;;7.97;2.83;;;;;;;;;;6205336;23;20024;-60
2023/06/28 19:17:56;;;;;;;6.68;3.30;;;;;;;;;;6206188;23;20024;-60
2023/06/28 19:20:50;;;;;;;6.53;3.15;;;;;;;;;;6206872;23;20028;-60
2023/06/28 19:23:39;;;;;;;10.95;2.92;;;;;;;;;;6201014;23;20027;-60
2023/06/28 19:26:13;;;;;;;6.18;2.72;;;;;;;;;;6203309;23;20528;-60
2023/06/28 19:28:41;;;;;;;6.93;2.72;;;;;;;;;;6207422;23;20059;-60
2023/06/28 19:31:08;;;;;;;16.50;2.90;;;;;;;;;;6206140;23;20031;-60
2023/06/28 19:33:42;;;;;;;7.78;2.55;;;;;;;;;;6205174;23;20358;-60
2023/06/28 19:36:15;;;;;;;9.05;2.90;;;;;;;;;;6205287;23;20078;-61
2023/06/28 19:38:43;;;;;;;8.90;2.95;;;;;;;;;;6206061;23;20025;-60
2023/06/28 19:41:10;;;;;;;10.90;2.85;;;;;;;;;;6204346;23;20500;-60
2023/06/28 19:44:04;;;;;;;9.30;3.20;;;;;;;;;;6205083;23;20083;-60
2023/06/28 19:46:59;;;;;;;10.48;2.95;;;;;;;;;;6204529;23;20028;-60
2023/06/28 19:49:45;;;;;;;11.20;3.00;;;;;;;;;;6203327;23;20021;-61
2023/06/28 19:52:39;;;;;;;15.55;3.00;;;;;;;;;;6205865;23;20031;-59
2023/06/28 19:55:26;;;;;;;8.90;2.80;;;;;;;;;;6203535;23;20286;-59
2023/06/28 19:58:27;;;;;;;11.65;3.17;;;;;;;;;;6204104;23;20028;-60
2023/06/28 20:01:14;;;;;;;12.18;3.25;;;;;;;;;;6206060;23;20078;-60
2023/06/28 20:04:09;;;;;;;11.85;3.60;;;;;;;;;;6203439;23;20462;-60
2023/06/28 20:06:56;;;;;;;11.00;3.47;;;;;;;;;;6204733;23;20465;-59
2023/06/28 20:09:50;;;;;;;10.80;3.10;;;;;;;;;;6205868;23;20108;-59
2023/06/28 20:12:37;;;;;;;13.98;3.15;;;;;;;;;;6202236;23;20393;-60
2023/06/28 20:15:31;;;;;;;10.60;3.20;;;;;;;;;;6204544;23;20032;-60
2023/06/28 20:18:18;;;;;;;10.15;2.65;;;;;;;;;;6205683;23;20017;-60
2023/06/28 20:21:13;;;;;;;12.07;3.15;;;;;;;;;;6204719;23;20075;-59
2023/06/28 20:23:59;;;;;;;14.68;3.28;;;;;;;;;;6203275;23;20090;-60
2023/06/28 20:26:52;;;;;;;18.17;3.38;;;;;;;;;;6202783;23;20017;-59
2023/06/28 20:29:40;;;;;;;10.68;3.33;;;;;;;;;;6204410;23;20078;-60
2023/06/28 20:32:34;;;;;;;20.30;4.00;;;;;;;;;;6203545;23;20028;-60
2023/06/28 20:35:24;;;;;;;14.18;3.15;;;;;;;;;;6204634;23;20028;-60
2023/06/28 20:38:15;;;;;;;11.38;3.83;;;;;;;;;;6203646;23;20024;-60
2023/06/28 20:41:05;;;;;;;14.15;3.60;;;;;;;;;;6203247;23;20079;-59
2023/06/28 20:43:59;;;;;;;13.32;3.53;;;;;;;;;;6207029;23;20099;-59
2023/06/28 20:46:46;;;;;;;13.90;3.55;;;;;;;;;;6204231;23;20024;-59
2023/06/28 20:49:39;;;;;;;11.70;3.60;;;;;;;;;;6206176;23;20017;-59
2023/06/28 20:52:27;;;;;;;10.40;2.95;;;;;;;;;;6206497;23;20397;-59
2023/06/28 20:55:20;;;;;;;9.70;3.30;;;;;;;;;;6205389;23;20481;-59
2023/06/28 20:58:21;;;;;;;14.02;3.38;;;;;;;;;;6204520;23;20102;-59
2023/06/28 21:01:17;;;;;;;8.73;3.28;;;;;;;;;;6203814;23;20025;-60
2023/06/28 21:04:09;;;;;;;10.90;4.13;;;;;;;;;;6206881;23;20332;-59
2023/06/28 21:06:56;;;;;;;20.25;4.32;;;;;;;;;;6208063;23;20078;-60
2023/06/28 21:09:51;;;;;;;12.68;3.63;;;;;;;;;;6207634;23;20021;-59
2023/06/28 21:12:38;;;;;;;18.75;4.22;;;;;;;;;;6209055;23;20485;-60
2023/06/28 21:15:32;;;;;;;15.13;3.92;;;;;;;;;;6207158;23;20501;-59
2023/06/28 21:18:26;;;;;;;11.32;4.40;;;;;;;;;;6207991;23;20075;-60
2023/06/28 21:21:20;;;;;;;14.30;3.88;;;;;;;;;;6208354;23;20024;-59
2023/06/28 21:24:09;;;;;;;9.68;3.42;;;;;;;;;;6208626;23;20020;-59
2023/06/28 21:27:04;;;;;;;14.63;3.40;;;;;;;;;;6207864;23;20029;-59
2023/06/28 21:29:51;;;;;;;13.00;4.35;;;;;;;;;;6209391;23;20029;-59
2023/06/28 21:32:47;;;;;;;7.47;3.30;;;;;;;;;;6207195;23;20319;-59
2023/06/28 21:35:38;;;;;;;12.10;3.95;;;;;;;;;;6207828;23;20099;-61
2023/06/28 21:38:26;;;;;;;13.18;4.07;;;;;;;;;;6207534;23;20028;-60
2023/06/28 21:41:20;;;;;;;13.10;4.25;;;;;;;;;;6208491;23;20362;-60
2023/06/28 21:44:07;;;;;;;12.80;3.92;;;;;;;;;;6206091;23;20473;-60
2023/06/28 21:47:01;;;;;;;12.73;3.88;;;;;;;;;;6207331;23;20470;-59
2023/06/28 21:49:48;;;;;;;14.50;4.43;;;;;;;;;;6208920;23;20021;-60
2023/06/28 21:52:41;;;;;;;12.23;4.13;;;;;;;;;;6209128;23;20028;-60
2023/06/28 21:55:29;;;;;;;13.32;4.50;;;;;;;;;;6208143;23;20028;-59
2023/06/28 21:58:29;;;;;;;13.00;4.10;;;;;;;;;;6207840;23;20090;-60
2023/06/28 22:01:18;;;;;;;16.77;4.13;;;;;;;;;;6208289;23;20028;-60
2023/06/28 22:04:11;;;;;;;18.77;4.35;;;;;;;;;;6208269;23;20032;-60
2023/06/28 22:06:58;;;;;;;11.38;4.63;;;;;;;;;;6208017;23;20075;-59
2023/06/28 22:09:53;;;;;;;15.45;4.78;;;;;;;;;;6205069;23;20909;-60
2023/06/28 22:12:39;;;;;;;12.15;4.50;;;;;;;;;;6208293;23;20362;-59
2023/06/28 22:15:34;;;;;;;14.98;4.68;;;;;;;;;;6209060;23;20020;-60
2023/06/28 22:18:20;;;;;;;18.40;4.90;;;;;;;;;;6205829;23;20028;-59
2023/06/28 22:21:14;;;;;;;13.90;5.63;;;;;;;;;;6208142;23;20082;-60
2023/06/28 22:24:02;;;;;;;21.10;5.03;;;;;;;;;;6208107;23;20025;-60
2023/06/28 22:26:56;;;;;;;14.48;5.05;;;;;;;;;;6207373;23;20029;-60
2023/06/28 22:29:43;;;;;;;17.83;5.13;;;;;;;;;;6208077;23;20028;-60
2023/06/28 22:32:41;;;;;;;26.23;5.30;;;;;;;;;;6208664;23;20075;-60
2023/06/28 22:35:28;;;;;;;14.18;4.47;;;;;;;;;;6207907;23;20017;-59
2023/06/28 22:38:22;;;;;;;15.95;5.90;;;;;;;;;;6207587;23;20029;-59
2023/06/28 22:41:19;;;;;;;13.88;5.35;;;;;;;;;;6209012;23;20025;-60
2023/06/28 22:44:12;;;;;;;17.38;5.97;;;;;;;;;;6207949;23;20074;-60
2023/06/28 22:47:08;;;;;;;13.45;5.28;;;;;;;;;;6208247;23;20067;-60
2023/06/28 22:50:01;;;;;;;18.25;5.68;;;;;;;;;;6209133;23;20106;-60
2023/06/28 22:52:55;;;;;;;12.50;5.85;;;;;;;;;;6210807;23;20016;-60
2023/06/28 22:55:48;;;;;;;19.42;5.93;;;;;;;;;;6210695;23;20035;-59
2023/06/28 22:58:36;;;;;;;18.73;5.68;;;;;;;;;;6208686;23;20401;-59
2023/06/28 23:01:30;;;;;;;17.73;5.60;;;;;;;;;;6207451;23;20043;-60
2023/06/28 23:04:17;;;;;;;12.38;4.53;;;;;;;;;;6209448;23;20028;-60
2023/06/28 23:07:11;;;;;;;19.95;5.25;;;;;;;;;;6207781;23;20524;-59
2023/06/28 23:09:59;;;;;;;17.73;5.78;;;;;;;;;;6210565;23;20095;-60
2023/06/28 23:12:53;;;;;;;19.48;5.63;;;;;;;;;;6210798;23;20020;-60
2023/06/28 23:15:40;;;;;;;12.30;5.10;;;;;;;;;;6209193;23;20020;-61
2023/06/28 23:18:22;;;;;;;13.13;5.90;;;;;;;;;;6209100;23;20490;-60
2023/06/28 23:20:56;;;;;;;19.75;6.05;;;;;;;;;;6209753;23;20024;-59
2023/06/28 23:23:30;;;;;;;16.50;5.72;;;;;;;;;;6209247;23;20405;-59
2023/06/28 23:25:57;;;;;;;21.00;6.45;;;;;;;;;;6207236;23;20067;-60
2023/06/28 23:28:29;;;;;;;15.35;5.63;;;;;;;;;;6205321;23;20033;-60
2023/06/28 23:31:02;;;;;;;;;;;;;;;;;;6209142;23;20031;-60
2023/06/28 23:33:30;;;;;;;18.10;6.13;;;;;;;;;;6210890;23;19927;-60
2023/06/28 23:36:05;;;;;;;18.08;6.03;;;;;;;;;;6208891;23;20094;-60
2023/06/28 23:38:32;;;;;;;14.75;6.13;;;;;;;;;;6208610;23;20032;-60
2023/06/28 23:41:02;;;;;;;17.20;5.95;;;;;;;;;;6210216;23;20331;-59
2023/06/28 23:43:39;;;;;;;23.27;6.88;;;;;;;;;;6210246;23;20617;-60
2023/06/28 23:46:09;;;;;;;19.67;5.55;;;;;;;;;;6209638;23;20056;-61
2023/06/28 23:48:44;;;;;;;18.08;6.28;;;;;;;;;;6208472;23;20023;-60
2023/06/28 23:51:11;;;;;;;16.20;6.07;;;;;;;;;;6210000;23;20035;-60
2023/06/28 23:53:39;;;;;;;;;;;;;;;;;;6209514;23;20478;-60
2023/06/28 23:56:13;;;;;;;16.35;6.38;;;;;;;;;;6209089;23;19920;-60
2023/06/28 23:58:40;;;;;;;17.08;5.95;;;;;;;;;;6207504;23;20796;-60
